sensor_id;sensor_type;location;lat;lon;timestamp;temperature;humidity
20560;DHT22;10438;51.454;6.718;2022-09-23T00:00:39;12.60;99.90
20560;DHT22;10438;51.454;6.718;2022-09-23T00:03:05;12.50;99.90
20560;DHT22;10438;51.454;6.718;2022-09-23T00:05:31;12.50;99.90
20560;DHT22;10438;51.454;6.718;2022-09-23T00:07:57;12.50;99.90
20560;DHT22;10438;51.454;6.718;2022-09-23T00:10:25;12.50;99.90
20560;DHT22;10438;51.454;6.718;2022-09-23T00:12:51;12.50;99.90
20560;DHT22;10438;51.454;6.718;2022-09-23T00:15:17;12.50;99.90
20560;DHT22;10438;51.454;6.718;2022-09-23T00:17:44;12.50;99.90
20560;DHT22;10438;51.454;6.718;2022-09-23T00:20:10;12.50;99.90
20560;DHT22;10438;51.454;6.718;2022-09-23T00:22:36;12.50;99.90
20560;DHT22;10438;51.454;6.718;2022-09-23T00:25:03;12.50;99.90
20560;DHT22;10438;51.454;6.718;2022-09-23T00:27:29;12.40;99.90
20560;DHT22;10438;51.454;6.718;2022-09-23T00:29:55;12.40;99.90
20560;DHT22;10438;51.454;6.718;2022-09-23T00:32:20;12.40;99.90
20560;DHT22;10438;51.454;6.718;2022-09-23T00:34:46;12.40;99.90
20560;DHT22;10438;51.454;6.718;2022-09-23T00:37:13;12.40;99.90
20560;DHT22;10438;51.454;6.718;2022-09-23T00:39:38;12.40;99.90
20560;DHT22;10438;51.454;6.718;2022-09-23T00:42:05;12.40;99.90
20560;DHT22;10438;51.454;6.718;2022-09-23T00:44:50;12.40;99.90
20560;DHT22;10438;51.454;6.718;2022-09-23T00:47:38;12.40;99.90
20560;DHT22;10438;51.454;6.718;2022-09-23T00:52:41;12.30;99.90
20560;DHT22;10438;51.454;6.718;2022-09-23T00:55:12;12.30;99.90
20560;DHT22;10438;51.454;6.718;2022-09-23T00:57:41;12.30;99.90
20560;DHT22;10438;51.454;6.718;2022-09-23T01:00:08;12.30;99.90
20560;DHT22;10438;51.454;6.718;2022-09-23T01:02:34;12.30;99.90
20560;DHT22;10438;51.454;6.718;2022-09-23T01:05:03;12.30;99.90
20560;DHT22;10438;51.454;6.718;2022-09-23T01:07:28;12.30;99.90
20560;DHT22;10438;51.454;6.718;2022-09-23T01:09:55;12.30;99.90
20560;DHT22;10438;51.454;6.718;2022-09-23T01:15:18;12.30;99.90
20560;DHT22;10438;51.454;6.718;2022-09-23T01:18:04;12.20;99.90
20560;DHT22;10438;51.454;6.718;2022-09-23T01:23:22;12.20;99.90
20560;DHT22;10438;51.454;6.718;2022-09-23T01:26:05;12.20;99.90
20560;DHT22;10438;51.454;6.718;2022-09-23T01:31:41;12.10;99.90
20560;DHT22;10438;51.454;6.718;2022-09-23T01:45:17;12.10;99.90
20560;DHT22;10438;51.454;6.718;2022-09-23T01:47:49;12.10;99.90
20560;DHT22;10438;51.454;6.718;2022-09-23T01:50:21;12.10;99.90
20560;DHT22;10438;51.454;6.718;2022-09-23T01:53:17;12.10;99.90
20560;DHT22;10438;51.454;6.718;2022-09-23T01:55:48;12.10;99.90
20560;DHT22;10438;51.454;6.718;2022-09-23T01:58:21;12.10;99.90
20560;DHT22;10438;51.454;6.718;2022-09-23T02:01:00;12.10;99.90
20560;DHT22;10438;51.454;6.718;2022-09-23T02:03:49;12.10;99.90
20560;DHT22;10438;51.454;6.718;2022-09-23T02:06:22;12.10;99.90
20560;DHT22;10438;51.454;6.718;2022-09-23T02:08:53;12.10;99.90
20560;DHT22;10438;51.454;6.718;2022-09-23T02:11:22;12.10;99.90
20560;DHT22;10438;51.454;6.718;2022-09-23T02:14:05;12.10;99.90
20560;DHT22;10438;51.454;6.718;2022-09-23T02:16:54;12.10;99.90
20560;DHT22;10438;51.454;6.718;2022-09-23T02:19:31;12.00;99.90
20560;DHT22;10438;51.454;6.718;2022-09-23T02:22:04;12.00;99.90
20560;DHT22;10438;51.454;6.718;2022-09-23T02:24:36;12.00;99.90
20560;DHT22;10438;51.454;6.718;2022-09-23T02:27:29;12.00;99.90
20560;DHT22;10438;51.454;6.718;2022-09-23T02:30:08;12.00;99.90
20560;DHT22;10438;51.454;6.718;2022-09-23T02:38:12;12.00;99.90
20560;DHT22;10438;51.454;6.718;2022-09-23T02:40:53;12.00;99.90
20560;DHT22;10438;51.454;6.718;2022-09-23T02:43:24;12.00;99.90
20560;DHT22;10438;51.454;6.718;2022-09-23T02:45:52;11.90;99.90
20560;DHT22;10438;51.454;6.718;2022-09-23T02:48:19;11.90;99.90
20560;DHT22;10438;51.454;6.718;2022-09-23T02:50:46;11.90;99.90
20560;DHT22;10438;51.454;6.718;2022-09-23T02:53:12;11.90;99.90
20560;DHT22;10438;51.454;6.718;2022-09-23T02:55:38;11.90;99.90
20560;DHT22;10438;51.454;6.718;2022-09-23T02:58:03;11.80;99.90
20560;DHT22;10438;51.454;6.718;2022-09-23T03:06:26;11.90;99.90
20560;DHT22;10438;51.454;6.718;2022-09-23T03:09:04;11.90;99.90
20560;DHT22;10438;51.454;6.718;2022-09-23T03:11:33;11.90;99.90
20560;DHT22;10438;51.454;6.718;2022-09-23T03:14:21;11.80;99.90
20560;DHT22;10438;51.454;6.718;2022-09-23T03:17:01;11.90;99.90
20560;DHT22;10438;51.454;6.718;2022-09-23T03:19:35;11.90;99.90
20560;DHT22;10438;51.454;6.718;2022-09-23T03:22:22;11.80;99.90
20560;DHT22;10438;51.454;6.718;2022-09-23T03:24:51;11.80;99.90
20560;DHT22;10438;51.454;6.718;2022-09-23T03:27:22;11.80;99.90
20560;DHT22;10438;51.454;6.718;2022-09-23T03:29:51;11.80;99.90
20560;DHT22;10438;51.454;6.718;2022-09-23T03:32:20;11.90;99.90
20560;DHT22;10438;51.454;6.718;2022-09-23T03:34:50;11.80;99.90
20560;DHT22;10438;51.454;6.718;2022-09-23T03:37:31;11.90;99.90
20560;DHT22;10438;51.454;6.718;2022-09-23T03:42:41;11.90;99.90
20560;DHT22;10438;51.454;6.718;2022-09-23T03:45:10;11.80;99.90
20560;DHT22;10438;51.454;6.718;2022-09-23T03:47:38;11.90;99.90
20560;DHT22;10438;51.454;6.718;2022-09-23T03:50:05;11.80;99.90
20560;DHT22;10438;51.454;6.718;2022-09-23T03:52:31;11.80;99.90
20560;DHT22;10438;51.454;6.718;2022-09-23T03:54:56;11.80;99.90
20560;DHT22;10438;51.454;6.718;2022-09-23T03:57:22;11.80;99.90
20560;DHT22;10438;51.454;6.718;2022-09-23T03:59:49;11.80;99.90
20560;DHT22;10438;51.454;6.718;2022-09-23T04:02:15;11.70;99.90
20560;DHT22;10438;51.454;6.718;2022-09-23T04:04:41;11.70;99.90
20560;DHT22;10438;51.454;6.718;2022-09-23T04:07:08;11.70;99.90
20560;DHT22;10438;51.454;6.718;2022-09-23T04:09:33;11.70;99.90
20560;DHT22;10438;51.454;6.718;2022-09-23T04:11:59;11.70;99.90
20560;DHT22;10438;51.454;6.718;2022-09-23T04:14:25;11.60;99.90
20560;DHT22;10438;51.454;6.718;2022-09-23T04:16:50;11.60;99.90
20560;DHT22;10438;51.454;6.718;2022-09-23T04:19:16;11.60;99.90
20560;DHT22;10438;51.454;6.718;2022-09-23T04:21:42;11.60;99.90
20560;DHT22;10438;51.454;6.718;2022-09-23T04:24:10;11.60;99.90
20560;DHT22;10438;51.454;6.718;2022-09-23T04:26:36;11.60;99.90
20560;DHT22;10438;51.454;6.718;2022-09-23T04:29:03;11.60;99.90
20560;DHT22;10438;51.454;6.718;2022-09-23T04:31:29;11.50;99.90
20560;DHT22;10438;51.454;6.718;2022-09-23T04:33:55;11.50;99.90
20560;DHT22;10438;51.454;6.718;2022-09-23T04:36:21;11.50;99.90
20560;DHT22;10438;51.454;6.718;2022-09-23T04:38:47;11.50;99.90
20560;DHT22;10438;51.454;6.718;2022-09-23T04:41:14;11.40;99.90
20560;DHT22;10438;51.454;6.718;2022-09-23T04:43:41;11.40;99.90
20560;DHT22;10438;51.454;6.718;2022-09-23T04:46:09;11.40;99.90
20560;DHT22;10438;51.454;6.718;2022-09-23T04:48:36;11.40;99.90
20560;DHT22;10438;51.454;6.718;2022-09-23T04:51:10;11.40;99.90
20560;DHT22;10438;51.454;6.718;2022-09-23T04:53:38;11.40;99.90
20560;DHT22;10438;51.454;6.718;2022-09-23T04:56:09;11.30;99.90
20560;DHT22;10438;51.454;6.718;2022-09-23T04:58:36;11.40;99.90
20560;DHT22;10438;51.454;6.718;2022-09-23T05:01:12;11.30;99.90
20560;DHT22;10438;51.454;6.718;2022-09-23T05:03:38;11.30;99.90
20560;DHT22;10438;51.454;6.718;2022-09-23T05:06:04;11.30;99.90
20560;DHT22;10438;51.454;6.718;2022-09-23T05:08:30;11.30;99.90
20560;DHT22;10438;51.454;6.718;2022-09-23T05:11:01;11.20;99.90
20560;DHT22;10438;51.454;6.718;2022-09-23T05:13:26;11.20;99.90
20560;DHT22;10438;51.454;6.718;2022-09-23T05:16:03;11.20;99.90
20560;DHT22;10438;51.454;6.718;2022-09-23T05:18:40;11.20;99.90
20560;DHT22;10438;51.454;6.718;2022-09-23T05:21:07;11.20;99.90
20560;DHT22;10438;51.454;6.718;2022-09-23T05:23:34;11.20;99.90
20560;DHT22;10438;51.454;6.718;2022-09-23T05:26:02;11.20;99.90
20560;DHT22;10438;51.454;6.718;2022-09-23T05:28:29;11.20;99.90
20560;DHT22;10438;51.454;6.718;2022-09-23T05:33:34;11.20;99.90
20560;DHT22;10438;51.454;6.718;2022-09-23T05:36:00;11.20;99.90
20560;DHT22;10438;51.454;6.718;2022-09-23T05:38:27;11.20;99.90
20560;DHT22;10438;51.454;6.718;2022-09-23T05:41:04;11.20;99.90
20560;DHT22;10438;51.454;6.718;2022-09-23T05:43:30;11.20;99.90
20560;DHT22;10438;51.454;6.718;2022-09-23T05:49:03;11.30;99.90
20560;DHT22;10438;51.454;6.718;2022-09-23T05:51:30;11.30;99.90
20560;DHT22;10438;51.454;6.718;2022-09-23T05:53:56;11.30;99.90
20560;DHT22;10438;51.454;6.718;2022-09-23T05:56:27;11.30;99.90
20560;DHT22;10438;51.454;6.718;2022-09-23T05:58:55;11.30;99.90
20560;DHT22;10438;51.454;6.718;2022-09-23T06:01:23;11.40;99.90
20560;DHT22;10438;51.454;6.718;2022-09-23T06:03:54;11.40;99.90
20560;DHT22;10438;51.454;6.718;2022-09-23T06:06:32;11.50;99.90
20560;DHT22;10438;51.454;6.718;2022-09-23T06:08:59;11.50;99.90
20560;DHT22;10438;51.454;6.718;2022-09-23T06:11:25;11.50;99.90
20560;DHT22;10438;51.454;6.718;2022-09-23T06:13:54;11.50;99.90
20560;DHT22;10438;51.454;6.718;2022-09-23T06:16:20;11.60;99.90
20560;DHT22;10438;51.454;6.718;2022-09-23T06:18:46;11.60;99.90
20560;DHT22;10438;51.454;6.718;2022-09-23T06:21:14;11.70;99.90
20560;DHT22;10438;51.454;6.718;2022-09-23T06:23:40;11.70;99.90
20560;DHT22;10438;51.454;6.718;2022-09-23T06:26:07;11.80;99.90
20560;DHT22;10438;51.454;6.718;2022-09-23T06:28:36;11.80;99.90
20560;DHT22;10438;51.454;6.718;2022-09-23T06:31:03;11.90;99.90
20560;DHT22;10438;51.454;6.718;2022-09-23T06:33:30;11.90;99.90
20560;DHT22;10438;51.454;6.718;2022-09-23T06:35:59;12.00;99.90
20560;DHT22;10438;51.454;6.718;2022-09-23T06:38:26;12.00;99.90
20560;DHT22;10438;51.454;6.718;2022-09-23T06:40:53;12.10;99.90
20560;DHT22;10438;51.454;6.718;2022-09-23T06:43:20;12.20;99.90
20560;DHT22;10438;51.454;6.718;2022-09-23T06:46:00;12.20;99.90
20560;DHT22;10438;51.454;6.718;2022-09-23T06:48:27;12.30;99.90
20560;DHT22;10438;51.454;6.718;2022-09-23T06:50:53;12.30;99.90
20560;DHT22;10438;51.454;6.718;2022-09-23T06:53:22;12.40;99.90
20560;DHT22;10438;51.454;6.718;2022-09-23T06:55:56;12.40;99.90
20560;DHT22;10438;51.454;6.718;2022-09-23T06:58:22;12.50;99.90
20560;DHT22;10438;51.454;6.718;2022-09-23T07:00:47;12.50;99.90
20560;DHT22;10438;51.454;6.718;2022-09-23T07:03:12;12.60;99.90
20560;DHT22;10438;51.454;6.718;2022-09-23T07:05:38;12.60;99.90
20560;DHT22;10438;51.454;6.718;2022-09-23T07:08:07;12.70;99.90
20560;DHT22;10438;51.454;6.718;2022-09-23T07:10:35;12.80;99.90
20560;DHT22;10438;51.454;6.718;2022-09-23T07:13:04;12.80;99.90
20560;DHT22;10438;51.454;6.718;2022-09-23T07:15:29;12.80;99.90
20560;DHT22;10438;51.454;6.718;2022-09-23T07:17:55;12.90;99.90
20560;DHT22;10438;51.454;6.718;2022-09-23T07:20:21;12.90;99.90
20560;DHT22;10438;51.454;6.718;2022-09-23T07:22:50;12.90;99.90
20560;DHT22;10438;51.454;6.718;2022-09-23T07:25:17;13.00;99.90
20560;DHT22;10438;51.454;6.718;2022-09-23T07:27:43;13.10;99.90
20560;DHT22;10438;51.454;6.718;2022-09-23T07:30:08;13.10;99.90
20560;DHT22;10438;51.454;6.718;2022-09-23T07:32:34;13.20;99.90
20560;DHT22;10438;51.454;6.718;2022-09-23T07:35:00;13.20;99.90
20560;DHT22;10438;51.454;6.718;2022-09-23T07:37:25;13.20;99.90
20560;DHT22;10438;51.454;6.718;2022-09-23T07:39:50;13.40;99.90
20560;DHT22;10438;51.454;6.718;2022-09-23T07:42:16;13.40;99.90
20560;DHT22;10438;51.454;6.718;2022-09-23T07:44:41;13.40;99.90
20560;DHT22;10438;51.454;6.718;2022-09-23T07:47:12;13.40;99.90
20560;DHT22;10438;51.454;6.718;2022-09-23T07:49:38;13.40;99.90
20560;DHT22;10438;51.454;6.718;2022-09-23T07:52:03;13.50;99.90
20560;DHT22;10438;51.454;6.718;2022-09-23T07:54:29;13.50;99.90
20560;DHT22;10438;51.454;6.718;2022-09-23T07:56:55;13.60;99.90
20560;DHT22;10438;51.454;6.718;2022-09-23T07:59:21;13.60;99.90
20560;DHT22;10438;51.454;6.718;2022-09-23T08:01:49;13.60;99.90
20560;DHT22;10438;51.454;6.718;2022-09-23T08:04:22;13.60;99.90
20560;DHT22;10438;51.454;6.718;2022-09-23T08:06:50;13.70;99.90
20560;DHT22;10438;51.454;6.718;2022-09-23T08:09:19;13.70;99.90
20560;DHT22;10438;51.454;6.718;2022-09-23T08:11:44;13.70;99.90
20560;DHT22;10438;51.454;6.718;2022-09-23T08:14:12;13.80;99.90
20560;DHT22;10438;51.454;6.718;2022-09-23T08:16:38;13.80;99.90
20560;DHT22;10438;51.454;6.718;2022-09-23T08:19:05;13.90;99.90
20560;DHT22;10438;51.454;6.718;2022-09-23T08:21:31;14.00;99.90
20560;DHT22;10438;51.454;6.718;2022-09-23T08:23:57;14.00;99.90
20560;DHT22;10438;51.454;6.718;2022-09-23T08:26:22;14.10;99.90
20560;DHT22;10438;51.454;6.718;2022-09-23T08:28:49;14.10;99.90
20560;DHT22;10438;51.454;6.718;2022-09-23T08:31:18;14.10;99.90
20560;DHT22;10438;51.454;6.718;2022-09-23T08:33:44;14.20;99.90
20560;DHT22;10438;51.454;6.718;2022-09-23T08:36:09;14.20;99.90
20560;DHT22;10438;51.454;6.718;2022-09-23T08:38:35;14.20;99.90
20560;DHT22;10438;51.454;6.718;2022-09-23T08:41:23;14.20;99.90
20560;DHT22;10438;51.454;6.718;2022-09-23T08:44:00;14.20;99.90
20560;DHT22;10438;51.454;6.718;2022-09-23T08:46:34;14.20;99.90
20560;DHT22;10438;51.454;6.718;2022-09-23T08:49:03;14.20;99.90
20560;DHT22;10438;51.454;6.718;2022-09-23T08:51:37;14.20;99.90
20560;DHT22;10438;51.454;6.718;2022-09-23T08:54:04;14.30;99.90
20560;DHT22;10438;51.454;6.718;2022-09-23T08:56:32;14.20;99.90
20560;DHT22;10438;51.454;6.718;2022-09-23T08:59:07;14.30;99.90
20560;DHT22;10438;51.454;6.718;2022-09-23T09:01:43;14.30;99.90
20560;DHT22;10438;51.454;6.718;2022-09-23T09:09:36;14.80;99.90
20560;DHT22;10438;51.454;6.718;2022-09-23T09:12:31;15.00;99.90
20560;DHT22;10438;51.454;6.718;2022-09-23T09:15:02;15.20;99.90
20560;DHT22;10438;51.454;6.718;2022-09-23T09:20:59;15.50;99.90
20560;DHT22;10438;51.454;6.718;2022-09-23T09:26:01;16.00;99.90
20560;DHT22;10438;51.454;6.718;2022-09-23T09:28:39;16.00;99.90
20560;DHT22;10438;51.454;6.718;2022-09-23T09:31:26;16.00;99.90
20560;DHT22;10438;51.454;6.718;2022-09-23T09:39:13;16.30;99.90
20560;DHT22;10438;51.454;6.718;2022-09-23T09:41:43;16.40;99.90
20560;DHT22;10438;51.454;6.718;2022-09-23T09:50:04;16.80;99.90
20560;DHT22;10438;51.454;6.718;2022-09-23T09:52:30;16.70;99.90
20560;DHT22;10438;51.454;6.718;2022-09-23T09:55:23;16.60;99.90
20560;DHT22;10438;51.454;6.718;2022-09-23T10:02:52;16.90;99.90
20560;DHT22;10438;51.454;6.718;2022-09-23T10:05:27;16.80;99.90
20560;DHT22;10438;51.454;6.718;2022-09-23T10:07:54;16.90;99.90
20560;DHT22;10438;51.454;6.718;2022-09-23T10:10:23;17.00;99.90
20560;DHT22;10438;51.454;6.718;2022-09-23T10:12:49;17.00;99.90
20560;DHT22;10438;51.454;6.718;2022-09-23T10:15:31;17.20;99.90
20560;DHT22;10438;51.454;6.718;2022-09-23T10:17:58;17.10;99.90
20560;DHT22;10438;51.454;6.718;2022-09-23T10:20:30;17.10;99.90
20560;DHT22;10438;51.454;6.718;2022-09-23T10:23:06;17.00;99.90
20560;DHT22;10438;51.454;6.718;2022-09-23T10:25:33;17.10;99.90
20560;DHT22;10438;51.454;6.718;2022-09-23T10:28:35;17.30;99.90
20560;DHT22;10438;51.454;6.718;2022-09-23T10:31:12;17.70;99.90
20560;DHT22;10438;51.454;6.718;2022-09-23T10:33:47;17.80;99.90
20560;DHT22;10438;51.454;6.718;2022-09-23T10:36:15;17.80;99.90
20560;DHT22;10438;51.454;6.718;2022-09-23T10:38:41;17.90;99.90
20560;DHT22;10438;51.454;6.718;2022-09-23T10:41:47;17.90;99.90
20560;DHT22;10438;51.454;6.718;2022-09-23T10:47:50;18.00;98.30
20560;DHT22;10438;51.454;6.718;2022-09-23T10:50:28;18.00;96.60
20560;DHT22;10438;51.454;6.718;2022-09-23T11:15:11;18.60;91.70
20560;DHT22;10438;51.454;6.718;2022-09-23T11:36:34;19.50;79.00
20560;DHT22;10438;51.454;6.718;2022-09-23T11:39:11;19.60;75.80
20560;DHT22;10438;51.454;6.718;2022-09-23T11:41:38;19.90;79.10
20560;DHT22;10438;51.454;6.718;2022-09-23T11:44:17;20.10;78.20
20560;DHT22;10438;51.454;6.718;2022-09-23T11:49:28;20.00;68.10
20560;DHT22;10438;51.454;6.718;2022-09-23T11:54:53;19.80;71.80
20560;DHT22;10438;51.454;6.718;2022-09-23T11:57:50;19.60;71.70
20560;DHT22;10438;51.454;6.718;2022-09-23T12:00:22;19.70;72.10
20560;DHT22;10438;51.454;6.718;2022-09-23T12:03:50;19.80;62.10
20560;DHT22;10438;51.454;6.718;2022-09-23T12:06:00;19.80;60.70
20560;DHT22;10438;51.454;6.718;2022-09-23T12:08:30;20.00;54.50
20560;DHT22;10438;51.454;6.718;2022-09-23T12:11:04;19.90;55.30
20560;DHT22;10438;51.454;6.718;2022-09-23T12:24:40;20.10;61.10
20560;DHT22;10438;51.454;6.718;2022-09-23T12:26:48;20.30;58.10
20560;DHT22;10438;51.454;6.718;2022-09-23T12:29:15;20.30;51.10
20560;DHT22;10438;51.454;6.718;2022-09-23T12:31:41;20.30;50.00
20560;DHT22;10438;51.454;6.718;2022-09-23T12:34:39;20.00;46.00
20560;DHT22;10438;51.454;6.718;2022-09-23T12:37:05;19.80;55.90
20560;DHT22;10438;51.454;6.718;2022-09-23T12:39:36;19.50;48.70
20560;DHT22;10438;51.454;6.718;2022-09-23T12:42:17;19.60;52.70
20560;DHT22;10438;51.454;6.718;2022-09-23T12:44:45;19.40;52.50
20560;DHT22;10438;51.454;6.718;2022-09-23T12:49:46;19.20;59.50
20560;DHT22;10438;51.454;6.718;2022-09-23T12:52:21;19.10;57.10
20560;DHT22;10438;51.454;6.718;2022-09-23T12:54:50;19.10;60.20
20560;DHT22;10438;51.454;6.718;2022-09-23T13:05:22;18.90;53.20
20560;DHT22;10438;51.454;6.718;2022-09-23T13:08:18;18.90;60.90
20560;DHT22;10438;51.454;6.718;2022-09-23T13:10:48;18.90;60.30
20560;DHT22;10438;51.454;6.718;2022-09-23T13:13:30;18.90;62.20
20560;DHT22;10438;51.454;6.718;2022-09-23T13:16:11;18.80;68.40
20560;DHT22;10438;51.454;6.718;2022-09-23T13:21:17;18.60;72.00
20560;DHT22;10438;51.454;6.718;2022-09-23T13:26:54;18.70;78.20
20560;DHT22;10438;51.454;6.718;2022-09-23T13:29:46;18.70;77.80
20560;DHT22;10438;51.454;6.718;2022-09-23T13:32:19;18.70;76.20
20560;DHT22;10438;51.454;6.718;2022-09-23T13:35:35;18.70;75.60
20560;DHT22;10438;51.454;6.718;2022-09-23T13:37:46;18.70;72.50
20560;DHT22;10438;51.454;6.718;2022-09-23T13:40:24;18.70;75.20
20560;DHT22;10438;51.454;6.718;2022-09-23T13:43:14;18.80;76.50
20560;DHT22;10438;51.454;6.718;2022-09-23T13:45:42;18.80;76.20
20560;DHT22;10438;51.454;6.718;2022-09-23T13:48:12;18.90;75.00
20560;DHT22;10438;51.454;6.718;2022-09-23T13:50:38;19.10;84.90
20560;DHT22;10438;51.454;6.718;2022-09-23T13:53:15;19.00;78.50
20560;DHT22;10438;51.454;6.718;2022-09-23T13:55:40;18.80;71.20
20560;DHT22;10438;51.454;6.718;2022-09-23T13:58:20;18.80;73.70
20560;DHT22;10438;51.454;6.718;2022-09-23T14:00:47;18.80;73.10
20560;DHT22;10438;51.454;6.718;2022-09-23T14:03:30;18.70;75.90
20560;DHT22;10438;51.454;6.718;2022-09-23T14:05:59;18.80;72.10
20560;DHT22;10438;51.454;6.718;2022-09-23T14:08:26;18.80;69.70
20560;DHT22;10438;51.454;6.718;2022-09-23T14:10:52;18.70;71.70
20560;DHT22;10438;51.454;6.718;2022-09-23T14:13:27;18.70;75.30
20560;DHT22;10438;51.454;6.718;2022-09-23T14:15:57;18.70;76.50
20560;DHT22;10438;51.454;6.718;2022-09-23T14:18:31;18.70;77.70
20560;DHT22;10438;51.454;6.718;2022-09-23T14:20:58;18.60;73.00
20560;DHT22;10438;51.454;6.718;2022-09-23T14:23:23;18.50;77.30
20560;DHT22;10438;51.454;6.718;2022-09-23T14:25:50;18.50;79.90
20560;DHT22;10438;51.454;6.718;2022-09-23T14:28:18;18.50;79.70
20560;DHT22;10438;51.454;6.718;2022-09-23T14:30:45;18.40;84.00
20560;DHT22;10438;51.454;6.718;2022-09-23T14:33:26;18.40;87.40
20560;DHT22;10438;51.454;6.718;2022-09-23T14:35:56;18.40;87.10
20560;DHT22;10438;51.454;6.718;2022-09-23T14:38:26;18.40;89.60
20560;DHT22;10438;51.454;6.718;2022-09-23T14:46:20;18.50;87.00
20560;DHT22;10438;51.454;6.718;2022-09-23T14:48:53;18.40;86.80
20560;DHT22;10438;51.454;6.718;2022-09-23T14:51:19;18.40;89.80
20560;DHT22;10438;51.454;6.718;2022-09-23T14:53:45;18.30;88.70
20560;DHT22;10438;51.454;6.718;2022-09-23T14:56:12;18.30;76.20
20560;DHT22;10438;51.454;6.718;2022-09-23T14:58:58;18.30;67.00
20560;DHT22;10438;51.454;6.718;2022-09-23T15:03:59;18.10;58.80
20560;DHT22;10438;51.454;6.718;2022-09-23T15:06:25;18.10;61.50
20560;DHT22;10438;51.454;6.718;2022-09-23T15:08:53;18.00;60.40
20560;DHT22;10438;51.454;6.718;2022-09-23T15:11:21;18.00;59.50
20560;DHT22;10438;51.454;6.718;2022-09-23T15:13:49;18.00;59.80
20560;DHT22;10438;51.454;6.718;2022-09-23T15:16:24;18.00;61.50
20560;DHT22;10438;51.454;6.718;2022-09-23T15:18:56;18.00;65.90
20560;DHT22;10438;51.454;6.718;2022-09-23T15:21:23;17.90;64.30
20560;DHT22;10438;51.454;6.718;2022-09-23T15:23:49;17.90;67.00
20560;DHT22;10438;51.454;6.718;2022-09-23T15:26:17;17.90;68.00
20560;DHT22;10438;51.454;6.718;2022-09-23T15:28:44;17.80;66.70
20560;DHT22;10438;51.454;6.718;2022-09-23T15:31:14;17.80;68.40
20560;DHT22;10438;51.454;6.718;2022-09-23T15:33:46;17.70;69.80
20560;DHT22;10438;51.454;6.718;2022-09-23T15:38:42;17.70;70.70
20560;DHT22;10438;51.454;6.718;2022-09-23T15:41:08;17.70;68.70
20560;DHT22;10438;51.454;6.718;2022-09-23T15:43:33;17.70;72.80
20560;DHT22;10438;51.454;6.718;2022-09-23T15:46:05;17.70;69.80
20560;DHT22;10438;51.454;6.718;2022-09-23T15:48:37;17.60;72.80
20560;DHT22;10438;51.454;6.718;2022-09-23T15:51:05;17.60;72.50
20560;DHT22;10438;51.454;6.718;2022-09-23T15:53:32;17.60;73.00
20560;DHT22;10438;51.454;6.718;2022-09-23T15:55:58;17.60;74.90
20560;DHT22;10438;51.454;6.718;2022-09-23T15:58:24;17.60;76.00
20560;DHT22;10438;51.454;6.718;2022-09-23T16:00:52;17.50;76.10
20560;DHT22;10438;51.454;6.718;2022-09-23T16:03:18;17.50;77.80
20560;DHT22;10438;51.454;6.718;2022-09-23T16:05:47;17.50;77.40
20560;DHT22;10438;51.454;6.718;2022-09-23T16:08:13;17.50;78.70
20560;DHT22;10438;51.454;6.718;2022-09-23T16:10:39;17.40;79.50
20560;DHT22;10438;51.454;6.718;2022-09-23T16:13:11;17.40;81.20
20560;DHT22;10438;51.454;6.718;2022-09-23T16:15:37;17.40;81.70
20560;DHT22;10438;51.454;6.718;2022-09-23T16:18:07;17.40;85.00
20560;DHT22;10438;51.454;6.718;2022-09-23T16:20:35;17.30;82.50
20560;DHT22;10438;51.454;6.718;2022-09-23T16:23:05;17.30;83.40
20560;DHT22;10438;51.454;6.718;2022-09-23T16:25:32;17.30;88.40
20560;DHT22;10438;51.454;6.718;2022-09-23T16:28:01;17.30;90.90
20560;DHT22;10438;51.454;6.718;2022-09-23T16:30:29;17.20;90.40
20560;DHT22;10438;51.454;6.718;2022-09-23T16:32:55;17.30;90.50
20560;DHT22;10438;51.454;6.718;2022-09-23T16:35:22;17.20;90.50
20560;DHT22;10438;51.454;6.718;2022-09-23T16:37:49;17.30;91.00
20560;DHT22;10438;51.454;6.718;2022-09-23T16:40:17;17.20;92.30
20560;DHT22;10438;51.454;6.718;2022-09-23T16:42:50;17.20;93.00
20560;DHT22;10438;51.454;6.718;2022-09-23T16:45:18;17.10;94.20
20560;DHT22;10438;51.454;6.718;2022-09-23T16:47:48;17.10;94.70
20560;DHT22;10438;51.454;6.718;2022-09-23T16:50:16;17.10;95.50
20560;DHT22;10438;51.454;6.718;2022-09-23T16:52:42;17.00;96.30
20560;DHT22;10438;51.454;6.718;2022-09-23T16:55:09;17.00;96.70
20560;DHT22;10438;51.454;6.718;2022-09-23T16:57:36;17.00;97.80
20560;DHT22;10438;51.454;6.718;2022-09-23T17:00:04;16.90;99.10
20560;DHT22;10438;51.454;6.718;2022-09-23T17:02:49;16.90;97.70
20560;DHT22;10438;51.454;6.718;2022-09-23T17:05:33;16.90;98.90
20560;DHT22;10438;51.454;6.718;2022-09-23T17:07:59;16.90;99.10
20560;DHT22;10438;51.454;6.718;2022-09-23T17:10:25;16.80;99.90
20560;DHT22;10438;51.454;6.718;2022-09-23T17:12:50;16.80;99.90
20560;DHT22;10438;51.454;6.718;2022-09-23T17:15:19;16.80;99.90
20560;DHT22;10438;51.454;6.718;2022-09-23T17:17:45;16.70;99.90
20560;DHT22;10438;51.454;6.718;2022-09-23T17:20:10;16.70;99.90
20560;DHT22;10438;51.454;6.718;2022-09-23T17:22:39;16.70;99.90
20560;DHT22;10438;51.454;6.718;2022-09-23T17:25:05;16.60;99.90
20560;DHT22;10438;51.454;6.718;2022-09-23T17:27:31;16.70;99.90
20560;DHT22;10438;51.454;6.718;2022-09-23T17:29:57;16.70;99.90
20560;DHT22;10438;51.454;6.718;2022-09-23T17:32:23;16.60;99.90
20560;DHT22;10438;51.454;6.718;2022-09-23T17:34:49;16.60;99.90
20560;DHT22;10438;51.454;6.718;2022-09-23T17:37:15;16.60;99.90
20560;DHT22;10438;51.454;6.718;2022-09-23T17:39:40;16.50;99.90
20560;DHT22;10438;51.454;6.718;2022-09-23T17:42:07;16.50;99.90
20560;DHT22;10438;51.454;6.718;2022-09-23T17:44:32;16.50;99.90
20560;DHT22;10438;51.454;6.718;2022-09-23T17:46:59;16.50;99.90
20560;DHT22;10438;51.454;6.718;2022-09-23T17:49:25;16.50;99.90
20560;DHT22;10438;51.454;6.718;2022-09-23T17:51:50;16.50;99.90
20560;DHT22;10438;51.454;6.718;2022-09-23T17:54:16;16.50;99.90
20560;DHT22;10438;51.454;6.718;2022-09-23T17:56:41;16.50;99.90
20560;DHT22;10438;51.454;6.718;2022-09-23T17:59:10;16.50;99.90
20560;DHT22;10438;51.454;6.718;2022-09-23T18:01:39;16.50;99.90
20560;DHT22;10438;51.454;6.718;2022-09-23T18:04:05;16.40;99.90
20560;DHT22;10438;51.454;6.718;2022-09-23T18:06:32;16.40;99.90
20560;DHT22;10438;51.454;6.718;2022-09-23T18:09:00;16.40;99.90
20560;DHT22;10438;51.454;6.718;2022-09-23T18:11:29;16.40;99.90
20560;DHT22;10438;51.454;6.718;2022-09-23T18:13:57;16.30;99.90
20560;DHT22;10438;51.454;6.718;2022-09-23T18:16:25;16.30;99.90
20560;DHT22;10438;51.454;6.718;2022-09-23T18:18:53;16.30;99.90
20560;DHT22;10438;51.454;6.718;2022-09-23T18:21:23;16.30;99.90
20560;DHT22;10438;51.454;6.718;2022-09-23T18:23:49;16.30;99.90
20560;DHT22;10438;51.454;6.718;2022-09-23T18:26:21;16.30;99.90